Time;durP1;ratioP1;P1;durP2;ratioP2;P2;SDS_P1;SDS_P2;PMS_P1;PMS_P2;Temp;Humidity;BMP_temperature;BMP_pressure;BME280_temperature;BME280_humidity;BME280_pressure;Samples;Min_cycle;Max_cycle;Signal;HPM_P1;HPM_P2
2021/09/04 00:01:44;;;;;;;1.50;1.00;;;17.40;98.20;;;;;;4975874;28;20485;-79
2021/09/04 00:04:10;;;;;;;1.50;1.00;;;17.40;98.20;;;;;;4991858;28;20488;-79
2021/09/04 00:06:37;;;;;;;1.50;1.00;;;17.30;98.20;;;;;;4980894;28;20555;-79
2021/09/04 00:09:04;;;;;;;1.50;1.00;;;17.30;98.20;;;;;;4984877;28;20471;-78
2021/09/04 00:11:32;;;;;;;1.50;1.00;;;17.30;98.20;;;;;;4978407;28;20481;-77
2021/09/04 00:14:00;;;;;;;1.50;1.00;;;17.20;98.20;;;;;;4991245;28;20457;-79
2021/09/04 00:16:27;;;;;;;1.50;1.00;;;17.20;98.20;;;;;;4972976;28;20477;-79
2021/09/04 00:18:53;;;;;;;1.60;1.10;;;17.20;98.20;;;;;;4991719;28;20460;-78
2021/09/04 00:21:20;;;;;;;1.50;0.90;;;17.20;98.20;;;;;;4982444;28;20492;-79
2021/09/04 00:23:47;;;;;;;1.50;1.00;;;17.10;98.20;;;;;;4993057;28;20488;-79
2021/09/04 00:26:14;;;;;;;1.50;1.00;;;17.10;98.20;;;;;;4965515;28;20485;-79
2021/09/04 00:28:42;;;;;;;1.50;1.00;;;17.10;98.20;;;;;;4992572;28;20808;-79
2021/09/04 00:31:10;;;;;;;1.50;0.90;;;17.10;98.20;;;;;;4971489;28;20548;-78
2021/09/04 00:33:37;;;;;;;1.50;1.00;;;17.10;98.20;;;;;;4992045;28;20465;-78
2021/09/04 00:36:04;;;;;;;1.50;1.00;;;17.00;98.20;;;;;;4980762;28;20499;-78
2021/09/04 00:38:31;;;;;;;1.50;1.00;;;17.00;98.20;;;;;;4988756;28;20461;-79
2021/09/04 00:40:58;;;;;;;3.57;3.37;;;17.00;98.20;;;;;;4983292;28;20464;-79
2021/09/04 00:43:25;;;;;;;1.50;1.00;;;17.00;98.20;;;;;;4991647;28;20461;-79
2021/09/04 00:45:52;;;;;;;1.50;1.00;;;17.00;98.20;;;;;;4977879;28;20485;-78
2021/09/04 00:48:20;;;;;;;1.50;1.00;;;16.90;98.20;;;;;;4990898;28;20579;-79
2021/09/04 00:50:47;;;;;;;1.50;0.90;;;16.90;98.20;;;;;;4988836;28;20465;-79
2021/09/04 00:53:13;;;;;;;1.50;0.90;;;16.90;98.20;;;;;;4984982;28;20473;-79
2021/09/04 00:55:40;;;;;;;1.50;1.00;;;16.90;98.20;;;;;;4990284;28;20480;-79
2021/09/04 00:58:08;;;;;;;1.50;1.00;;;16.80;98.20;;;;;;4985834;28;20480;-79
2021/09/04 01:00:35;;;;;;;1.50;0.90;;;16.80;98.20;;;;;;4986994;28;20457;-79
2021/09/04 01:03:02;;;;;;;1.50;1.00;;;16.80;98.20;;;;;;4965642;28;21015;-79
2021/09/04 01:05:30;;;;;;;1.50;0.90;;;16.80;98.20;;;;;;4985964;28;20485;-79
2021/09/04 01:07:57;;;;;;;1.50;1.00;;;16.80;98.20;;;;;;4980140;28;20477;-80
2021/09/04 01:10:26;;;;;;;1.50;1.00;;;16.70;98.20;;;;;;4992513;28;20461;-80
2021/09/04 01:12:53;;;;;;;1.50;1.00;;;16.70;98.20;;;;;;4979974;28;20489;-79
2021/09/04 01:15:20;;;;;;;1.50;0.90;;;16.70;98.20;;;;;;4990205;28;20867;-79
2021/09/04 01:17:47;;;;;;;1.50;1.00;;;16.70;98.20;;;;;;4980409;28;20488;-78
2021/09/04 01:20:14;;;;;;;1.50;0.90;;;16.70;98.20;;;;;;4992226;28;21042;-78
2021/09/04 01:22:42;;;;;;;1.50;1.00;;;16.60;98.20;;;;;;4974785;28;20485;-80
2021/09/04 01:25:10;;;;;;;1.50;1.00;;;16.60;98.20;;;;;;4991027;28;20580;-79
2021/09/04 01:27:39;;;;;;;1.60;1.20;;;16.60;98.20;;;;;;4974782;28;21154;-79
2021/09/04 01:30:09;;;;;;;1.50;1.00;;;16.60;98.20;;;;;;4991639;28;20473;-79
2021/09/04 01:32:36;;;;;;;1.50;1.00;;;16.50;98.20;;;;;;4980522;28;20573;-79
2021/09/04 01:35:05;;;;;;;1.50;1.00;;;16.50;98.20;;;;;;4990492;28;20484;-78
2021/09/04 01:37:33;;;;;;;1.50;1.00;;;16.50;98.20;;;;;;4963772;28;20490;-79
2021/09/04 01:40:00;;;;;;;1.50;1.00;;;16.50;98.20;;;;;;4988217;28;20461;-79
2021/09/04 01:42:27;;;;;;;1.50;1.00;;;16.50;98.20;;;;;;4980864;28;20487;-79
2021/09/04 01:44:55;;;;;;;1.50;1.00;;;16.40;98.20;;;;;;4990276;28;20497;-79
2021/09/04 01:47:21;;;;;;;1.50;1.00;;;16.40;98.20;;;;;;4973899;28;20854;-79
2021/09/04 01:49:48;;;;;;;1.53;1.00;;;16.40;98.20;;;;;;4991167;28;20457;-80
2021/09/04 01:52:15;;;;;;;1.50;1.00;;;16.40;98.20;;;;;;4973174;28;20481;-79
2021/09/04 01:54:42;;;;;;;1.50;0.90;;;16.30;98.20;;;;;;4986965;28;20465;-79
2021/09/04 01:57:10;;;;;;;1.50;0.90;;;16.30;98.20;;;;;;4985152;28;20482;-79
2021/09/04 01:59:38;;;;;;;1.50;0.90;;;16.30;98.20;;;;;;4977537;28;20477;-77
2021/09/04 02:02:07;;;;;;;1.50;1.00;;;16.30;98.20;;;;;;4978265;28;20481;-79
2021/09/04 02:04:34;;;;;;;1.50;1.00;;;16.30;98.20;;;;;;4989316;28;20484;-79
2021/09/04 02:07:01;;;;;;;1.50;1.00;;;16.30;98.20;;;;;;4965802;28;21009;-78
2021/09/04 02:09:28;;;;;;;1.50;0.90;;;16.30;98.20;;;;;;4985192;28;20472;-79
2021/09/04 02:11:54;;;;;;;1.50;0.97;;;16.30;98.20;;;;;;4978316;28;20496;-78
2021/09/04 02:14:21;;;;;;;1.50;1.00;;;16.20;98.20;;;;;;4983203;28;20461;-80
2021/09/04 02:16:48;;;;;;;1.50;0.90;;;16.20;98.20;;;;;;4978897;28;20616;-78
2021/09/04 02:19:16;;;;;;;1.50;0.90;;;16.20;98.20;;;;;;4989072;28;20947;-78
2021/09/04 02:21:43;;;;;;;1.53;1.00;;;16.20;98.20;;;;;;4968160;28;20960;-79
2021/09/04 02:24:10;;;;;;;1.50;1.10;;;16.20;98.20;;;;;;4989966;28;20468;-78
2021/09/04 02:26:36;;;;;;;1.50;0.93;;;16.10;98.20;;;;;;4973400;28;20500;-79
2021/09/04 02:29:03;;;;;;;1.50;1.00;;;16.10;98.20;;;;;;4988951;28;20462;-79
2021/09/04 02:31:30;;;;;;;1.50;1.00;;;16.10;98.20;;;;;;4979692;28;20840;-78
2021/09/04 02:33:57;;;;;;;2.00;1.40;;;16.10;98.20;;;;;;4985798;28;21168;-79
2021/09/04 02:36:25;;;;;;;1.50;0.90;;;16.00;98.20;;;;;;4974527;28;21035;-78
2021/09/04 02:38:52;;;;;;;1.60;1.00;;;16.00;98.20;;;;;;4985433;28;20928;-79
2021/09/04 02:41:19;;;;;;;1.57;1.00;;;16.00;98.20;;;;;;4979123;28;20480;-79
2021/09/04 02:43:46;;;;;;;1.53;1.00;;;16.00;98.20;;;;;;4990352;28;20467;-79
2021/09/04 02:46:12;;;;;;;1.50;1.00;;;15.90;98.20;;;;;;4963083;28;20612;-78
2021/09/04 02:48:39;;;;;;;1.57;1.00;;;15.90;98.20;;;;;;4986619;28;20461;-80
2021/09/04 02:51:06;;;;;;;1.57;1.00;;;15.90;98.20;;;;;;4979624;28;20478;-79
2021/09/04 02:53:34;;;;;;;1.50;0.90;;;15.90;98.20;;;;;;4989952;28;20471;-79
2021/09/04 02:56:01;;;;;;;1.53;1.00;;;15.90;98.20;;;;;;4977313;28;20876;-79
2021/09/04 02:58:27;;;;;;;1.50;1.00;;;15.90;98.20;;;;;;4972356;28;20933;-79
2021/09/04 03:00:54;;;;;;;1.60;1.00;;;15.90;98.20;;;;;;4979177;28;20457;-78
2021/09/04 03:03:21;;;;;;;1.50;1.00;;;15.80;98.20;;;;;;4988335;28;20910;-79
2021/09/04 03:05:47;;;;;;;1.50;1.00;;;15.80;98.20;;;;;;4978722;28;20493;-78
2021/09/04 03:08:14;;;;;;;1.50;0.90;;;15.80;98.20;;;;;;4981978;28;20461;-80
2021/09/04 03:10:42;;;;;;;1.57;1.00;;;15.80;98.20;;;;;;4990817;28;20523;-79
2021/09/04 03:13:09;;;;;;;1.53;1.00;;;15.80;98.20;;;;;;4970185;28;20483;-78
2021/09/04 03:15:36;;;;;;;1.50;1.00;;;15.70;98.20;;;;;;4985770;28;21086;-79
2021/09/04 03:18:03;;;;;;;1.50;1.00;;;15.70;98.20;;;;;;4976243;28;20496;-79
2021/09/04 03:20:29;;;;;;;1.50;1.00;;;15.70;98.20;;;;;;4990360;28;20838;-77
2021/09/04 03:22:56;;;;;;;1.50;0.90;;;15.70;98.20;;;;;;4977569;28;20490;-80
2021/09/04 03:25:23;;;;;;;1.57;1.00;;;15.70;98.20;;;;;;4993473;28;20645;-79
2021/09/04 03:27:51;;;;;;;1.50;1.00;;;15.70;98.20;;;;;;4981367;28;20488;-79
2021/09/04 03:30:18;;;;;;;1.50;1.00;;;15.60;98.20;;;;;;4993107;28;20472;-79
2021/09/04 03:32:44;;;;;;;1.53;1.00;;;15.60;98.20;;;;;;4982594;28;20485;-79
2021/09/04 03:35:11;;;;;;;1.53;1.00;;;15.60;98.20;;;;;;4993484;28;20476;-79
2021/09/04 03:37:38;;;;;;;1.60;1.10;;;15.60;98.20;;;;;;4975976;28;20491;-79
2021/09/04 03:40:06;;;;;;;1.60;1.10;;;15.60;98.20;;;;;;4995211;28;20830;-79
2021/09/04 03:42:33;;;;;;;1.50;0.90;;;15.60;98.20;;;;;;4982683;28;21000;-78
2021/09/04 03:45:01;;;;;;;1.53;1.00;;;15.60;98.20;;;;;;4992597;28;21226;-79
2021/09/04 03:47:28;;;;;;;1.53;1.00;;;15.50;98.20;;;;;;4982010;28;20579;-79
2021/09/04 03:49:54;;;;;;;1.53;1.00;;;15.50;98.20;;;;;;4987595;28;20461;-79
2021/09/04 03:52:21;;;;;;;1.50;1.00;;;15.50;98.20;;;;;;4975293;28;20861;-78
2021/09/04 03:54:48;;;;;;;1.57;1.00;;;15.50;98.20;;;;;;4992493;28;20456;-79
2021/09/04 03:57:14;;;;;;;1.57;1.00;;;15.50;98.20;;;;;;4987790;28;20481;-78
2021/09/04 03:59:41;;;;;;;1.50;1.00;;;15.50;98.20;;;;;;4991604;28;20480;-78
2021/09/04 04:02:09;;;;;;;1.60;1.00;;;15.50;98.20;;;;;;4980793;28;20507;-79
2021/09/04 04:04:36;;;;;;;1.60;1.10;;;15.40;98.20;;;;;;4991820;28;20464;-78
2021/09/04 04:07:03;;;;;;;1.57;1.00;;;15.40;98.20;;;;;;4979600;28;20481;-79
2021/09/04 04:09:30;;;;;;;1.50;1.00;;;15.40;98.20;;;;;;4987941;28;20465;-80
2021/09/04 04:11:57;;;;;;;1.57;1.00;;;15.40;98.20;;;;;;4982888;28;20507;-79
2021/09/04 04:14:24;;;;;;;1.57;1.00;;;15.40;98.20;;;;;;4993099;28;20487;-79
2021/09/04 04:16:50;;;;;;;1.53;1.00;;;15.40;98.20;;;;;;4982055;28;20485;-80
2021/09/04 04:19:19;;;;;;;1.50;1.00;;;15.30;98.20;;;;;;4991976;28;20469;-80
2021/09/04 04:21:45;;;;;;;1.60;1.00;;;15.30;98.20;;;;;;4982819;28;20492;-79
2021/09/04 04:24:12;;;;;;;1.57;1.00;;;15.30;98.20;;;;;;4993145;28;20456;-79
2021/09/04 04:26:39;;;;;;;1.50;1.00;;;15.30;98.20;;;;;;4981593;28;21201;-80
2021/09/04 04:29:06;;;;;;;1.50;1.00;;;15.30;98.20;;;;;;4992409;28;20453;-79
2021/09/04 04:31:34;;;;;;;1.50;1.00;;;15.20;98.20;;;;;;4981246;28;20485;-79
2021/09/04 04:34:00;;;;;;;1.57;1.00;;;15.20;98.20;;;;;;4990388;28;20560;-80
2021/09/04 04:36:28;;;;;;;1.50;1.07;;;15.20;98.20;;;;;;4974845;28;20485;-80
2021/09/04 04:38:55;;;;;;;1.53;1.00;;;15.20;98.20;;;;;;4982738;28;20465;-78
2021/09/04 04:41:22;;;;;;;1.90;1.53;;;15.20;98.20;;;;;;4982594;28;20520;-77
2021/09/04 04:43:48;;;;;;;1.50;1.00;;;15.20;98.20;;;;;;4993131;28;20461;-78
2021/09/04 04:46:15;;;;;;;1.50;1.00;;;15.10;98.20;;;;;;4981707;28;21063;-79
2021/09/04 04:48:42;;;;;;;1.50;1.00;;;15.10;98.20;;;;;;4992887;28;20465;-79
2021/09/04 04:51:09;;;;;;;1.50;1.00;;;15.10;98.20;;;;;;4984001;28;20485;-79
2021/09/04 04:53:37;;;;;;;1.50;1.00;;;15.10;98.20;;;;;;4988781;28;20484;-79
2021/09/04 04:56:04;;;;;;;1.53;1.00;;;15.10;98.20;;;;;;4981489;28;20484;-78
2021/09/04 04:58:31;;;;;;;1.53;1.00;;;15.10;98.20;;;;;;4998056;28;20461;-79
2021/09/04 05:00:58;;;;;;;1.57;1.00;;;15.10;98.20;;;;;;4981056;28;20460;-80
2021/09/04 05:03:25;;;;;;;1.57;1.00;;;15.10;98.20;;;;;;4992709;28;20450;-78
2021/09/04 05:05:52;;;;;;;1.50;1.00;;;15.10;98.20;;;;;;4979207;28;20856;-80
2021/09/04 05:08:18;;;;;;;1.53;1.00;;;15.10;98.20;;;;;;4995320;28;20996;-79
2021/09/04 05:10:46;;;;;;;1.50;0.90;;;15.10;98.20;;;;;;4978828;28;20995;-80
2021/09/04 05:13:13;;;;;;;1.50;1.00;;;15.10;98.20;;;;;;4989427;28;20469;-80
2021/09/04 05:15:40;;;;;;;1.50;1.10;;;15.10;98.20;;;;;;4990826;28;20484;-79
2021/09/04 05:18:07;;;;;;;1.53;0.90;;;15.00;98.20;;;;;;4980122;28;20484;-79
2021/09/04 05:20:34;;;;;;;1.50;1.00;;;15.10;98.20;;;;;;4991603;28;20465;-79
2021/09/04 05:23:00;;;;;;;1.50;1.00;;;15.10;98.20;;;;;;4980849;28;20508;-79
2021/09/04 05:25:27;;;;;;;1.57;1.00;;;15.10;98.20;;;;;;4991521;28;20493;-79
2021/09/04 05:27:55;;;;;;;1.53;1.00;;;15.10;98.20;;;;;;4978223;28;20489;-79
2021/09/04 05:30:22;;;;;;;1.53;1.10;;;15.10;98.20;;;;;;4987983;28;20457;-79
2021/09/04 05:32:49;;;;;;;1.50;1.00;;;15.10;98.20;;;;;;4980985;28;20485;-79
2021/09/04 05:35:16;;;;;;;1.50;1.00;;;15.10;98.20;;;;;;4992141;28;20516;-79
2021/09/04 05:37:42;;;;;;;1.60;1.10;;;15.10;98.20;;;;;;4976580;28;20867;-80
2021/09/04 05:40:10;;;;;;;1.53;0.97;;;15.20;98.20;;;;;;4990560;28;20465;-79
2021/09/04 05:42:37;;;;;;;1.53;1.00;;;15.20;98.20;;;;;;4980407;28;20477;-79
2021/09/04 05:45:07;;;;;;;1.50;0.90;;;15.20;98.20;;;;;;4991325;28;20491;-80
2021/09/04 05:47:33;;;;;;;1.60;1.30;;;15.20;98.20;;;;;;4978730;28;20472;-79
2021/09/04 05:50:02;;;;;;;1.50;1.00;;;15.30;98.20;;;;;;4992540;28;20470;-79
2021/09/04 05:52:29;;;;;;;1.50;0.90;;;15.40;98.20;;;;;;4976037;28;20548;-79
2021/09/04 05:54:56;;;;;;;1.50;1.00;;;15.50;98.20;;;;;;4988555;28;20474;-79
2021/09/04 05:57:23;;;;;;;1.50;1.00;;;15.50;98.20;;;;;;4982634;28;20477;-79
2021/09/04 05:59:50;;;;;;;1.50;1.00;;;15.60;98.20;;;;;;4994189;28;20840;-79
2021/09/04 06:02:18;;;;;;;1.50;1.00;;;15.70;98.20;;;;;;4984015;28;20484;-79
2021/09/04 06:04:45;;;;;;;1.50;0.90;;;15.90;98.20;;;;;;4995473;28;20465;-79
2021/09/04 06:07:12;;;;;;;1.57;1.10;;;16.00;98.20;;;;;;4972835;28;20964;-79
2021/09/04 06:09:38;;;;;;;1.50;1.00;;;16.20;98.20;;;;;;4996263;28;20457;-79
2021/09/04 06:12:06;;;;;;;1.50;0.90;;;16.30;98.20;;;;;;4975624;28;20482;-79
2021/09/04 06:14:32;;;;;;;1.50;1.00;;;16.40;98.20;;;;;;4987180;28;20466;-79
2021/09/04 06:16:59;;;;;;;1.50;1.00;;;16.50;98.20;;;;;;4983283;28;20516;-79
2021/09/04 06:19:27;;;;;;;1.50;1.00;;;16.60;98.20;;;;;;4992783;28;20453;-79
2021/09/04 06:21:54;;;;;;;1.50;1.00;;;16.60;98.20;;;;;;4981402;28;20485;-79
2021/09/04 06:24:21;;;;;;;1.50;1.00;;;16.70;98.20;;;;;;4991444;28;20457;-80
2021/09/04 06:26:47;;;;;;;1.50;0.90;;;16.70;98.20;;;;;;4969660;28;20485;-79
2021/09/04 06:29:14;;;;;;;1.53;1.00;;;16.80;98.20;;;;;;4991987;28;20469;-79
2021/09/04 06:31:41;;;;;;;1.50;0.90;;;16.80;98.20;;;;;;4976714;28;20481;-78
2021/09/04 06:34:07;;;;;;;1.57;1.00;;;17.00;98.20;;;;;;4989943;28;20461;-79
2021/09/04 06:36:36;;;;;;;1.60;1.10;;;17.10;98.20;;;;;;4980491;28;21099;-78
2021/09/04 06:39:02;;;;;;;1.50;1.00;;;17.10;98.20;;;;;;4990408;28;20464;-80
2021/09/04 06:41:29;;;;;;;1.50;1.00;;;17.10;98.20;;;;;;4971330;28;20484;-80
2021/09/04 06:43:56;;;;;;;1.53;1.00;;;17.20;98.20;;;;;;4991151;28;20471;-80
2021/09/04 06:46:23;;;;;;;1.60;1.20;;;17.30;98.20;;;;;;4981307;28;20484;-78
2021/09/04 06:48:50;;;;;;;1.50;1.00;;;17.40;98.20;;;;;;4990301;28;20492;-77
2021/09/04 06:51:16;;;;;;;1.57;0.90;;;17.60;98.20;;;;;;4979465;28;20983;-78
2021/09/04 06:53:44;;;;;;;1.53;0.90;;;17.80;98.20;;;;;;4989894;28;20461;-79
2021/09/04 06:56:11;;;;;;;1.50;1.00;;;18.00;98.20;;;;;;4981235;28;20484;-78
2021/09/04 06:58:38;;;;;;;1.57;1.00;;;18.10;98.20;;;;;;4993833;28;20461;-79
2021/09/04 07:01:05;;;;;;;1.57;0.93;;;18.20;98.20;;;;;;4978912;28;21032;-81
2021/09/04 07:03:32;;;;;;;1.53;0.90;;;18.20;98.20;;;;;;4990710;28;20465;-79
2021/09/04 07:05:59;;;;;;;1.50;0.90;;;18.30;98.20;;;;;;4979153;28;20485;-79
2021/09/04 07:08:26;;;;;;;1.57;1.00;;;18.30;98.20;;;;;;4989543;28;20464;-78
2021/09/04 07:10:54;;;;;;;1.50;1.00;;;18.30;98.20;;;;;;4980891;28;20856;-80
2021/09/04 07:13:21;;;;;;;1.50;1.00;;;18.30;98.20;;;;;;4990240;28;20457;-78
2021/09/04 07:15:48;;;;;;;1.50;0.90;;;18.30;98.20;;;;;;4970651;28;20508;-78
2021/09/04 07:18:15;;;;;;;1.60;1.30;;;18.40;98.20;;;;;;4987778;28;20472;-79
2021/09/04 07:20:42;;;;;;;1.60;1.00;;;18.50;98.20;;;;;;4984617;28;20492;-79
2021/09/04 07:23:09;;;;;;;1.50;1.00;;;18.60;98.20;;;;;;4978437;28;20951;-81
2021/09/04 07:25:35;;;;;;;1.57;0.90;;;18.70;98.20;;;;;;4989878;28;20485;-79
2021/09/04 07:28:06;;;;;;;1.53;0.90;;;18.80;98.20;;;;;;4971081;28;20486;-80
2021/09/04 07:30:33;;;;;;;1.60;1.20;;;18.80;98.20;;;;;;4990811;28;20505;-79
2021/09/04 07:33:00;;;;;;;1.60;0.93;;;19.00;98.20;;;;;;4979369;28;21074;-79
2021/09/04 07:35:27;;;;;;;1.57;0.90;;;19.10;98.20;;;;;;4989543;28;20863;-80
2021/09/04 07:37:53;;;;;;;1.50;0.90;;;19.30;98.20;;;;;;4964713;28;20890;-79
2021/09/04 07:40:20;;;;;;;1.57;0.90;;;19.50;98.20;;;;;;4988052;28;20483;-79
2021/09/04 07:42:47;;;;;;;1.50;0.90;;;19.60;98.20;;;;;;4974284;28;20496;-80
2021/09/04 07:45:15;;;;;;;1.57;1.00;;;19.80;98.20;;;;;;4989232;28;20491;-79
2021/09/04 07:47:42;;;;;;;1.60;1.00;;;19.90;98.20;;;;;;4961788;28;20490;-80
2021/09/04 07:50:10;;;;;;;1.50;0.90;;;19.90;98.20;;;;;;4989246;28;20548;-79
2021/09/04 07:52:42;;;;;;;1.57;0.90;;;20.00;98.20;;;;;;4980270;28;20488;-79
2021/09/04 07:55:09;;;;;;;1.60;1.00;;;20.10;98.20;;;;;;4985263;28;20670;-80
2021/09/04 07:57:39;;;;;;;1.53;0.90;;;20.20;98.20;;;;;;4980633;28;20560;-80
2021/09/04 08:00:07;;;;;;;1.60;1.27;;;20.30;98.20;;;;;;4988504;28;20457;-77
2021/09/04 08:02:35;;;;;;;1.50;0.90;;;20.50;98.20;;;;;;4970292;28;20485;-78
2021/09/04 08:05:01;;;;;;;1.50;0.90;;;20.60;98.20;;;;;;4984797;28;20849;-78
2021/09/04 08:07:28;;;;;;;1.50;0.90;;;20.70;98.20;;;;;;4977025;28;20472;-76
2021/09/04 08:09:55;;;;;;;1.53;0.90;;;20.80;98.10;;;;;;4993000;28;21001;-77
2021/09/04 08:12:22;;;;;;;1.50;0.90;;;20.90;98.20;;;;;;4983524;28;20495;-78
2021/09/04 08:14:49;;;;;;;1.50;0.90;;;20.90;98.10;;;;;;4995200;28;20469;-79
2021/09/04 08:17:16;;;;;;;1.50;0.90;;;21.00;98.10;;;;;;4982496;28;20472;-79
2021/09/04 08:19:44;;;;;;;1.57;0.90;;;21.10;97.80;;;;;;4994829;28;20469;-78
2021/09/04 08:22:11;;;;;;;1.50;0.90;;;21.20;97.50;;;;;;4981542;28;21038;-78
2021/09/04 08:24:38;;;;;;;1.50;0.90;;;21.20;97.40;;;;;;4993026;28;20468;-79
2021/09/04 08:27:05;;;;;;;1.50;0.90;;;21.30;97.00;;;;;;4981956;28;20484;-79
2021/09/04 08:29:31;;;;;;;1.50;0.90;;;21.50;96.90;;;;;;4993802;28;20471;-78
2021/09/04 08:31:58;;;;;;;1.50;1.00;;;21.50;96.50;;;;;;4982571;28;21052;-80
2021/09/04 08:34:25;;;;;;;2.37;1.00;;;21.60;96.00;;;;;;4994201;28;20507;-78
2021/09/04 08:36:53;;;;;;;1.53;0.90;;;21.70;96.10;;;;;;4982686;28;20489;-77
2021/09/04 08:39:20;;;;;;;1.50;0.90;;;21.80;95.40;;;;;;4992869;28;20464;-77
2021/09/04 08:41:47;;;;;;;1.50;0.90;;;21.80;95.40;;;;;;4972543;28;20493;-78
2021/09/04 08:44:14;;;;;;;1.50;0.90;;;21.90;95.30;;;;;;4991172;28;20457;-77
2021/09/04 08:46:41;;;;;;;1.57;0.90;;;22.00;95.20;;;;;;4979413;28;20508;-77
2021/09/04 08:49:09;;;;;;;1.50;0.90;;;22.10;95.80;;;;;;4984701;28;20975;-77
2021/09/04 08:51:36;;;;;;;1.50;0.90;;;22.20;94.60;;;;;;4976330;28;20481;-78
2021/09/04 08:54:04;;;;;;;1.50;0.90;;;22.20;94.50;;;;;;4988275;28;21098;-77
2021/09/04 08:56:32;;;;;;;1.50;0.90;;;22.30;94.70;;;;;;4976533;28;20604;-78
2021/09/04 08:58:59;;;;;;;1.50;0.90;;;22.40;93.80;;;;;;4987431;28;20556;-77
2021/09/04 09:01:28;;;;;;;1.57;1.00;;;22.50;92.70;;;;;;4976806;28;21253;-79
2021/09/04 09:03:57;;;;;;;1.53;0.90;;;22.60;93.20;;;;;;4987523;28;20476;-78
2021/09/04 09:06:28;;;;;;;1.70;1.30;;;22.70;92.90;;;;;;4965475;28;20915;-78
2021/09/04 09:08:55;;;;;;;1.50;0.90;;;22.80;92.90;;;;;;4984365;28;20469;-78
2021/09/04 09:11:24;;;;;;;1.50;0.90;;;22.90;92.70;;;;;;4977661;28;20484;-79
2021/09/04 09:13:53;;;;;;;1.57;0.90;;;23.00;92.60;;;;;;4976559;28;20466;-78
2021/09/04 09:16:22;;;;;;;1.70;1.10;;;23.10;91.70;;;;;;4971189;28;21079;-78
2021/09/04 09:18:56;;;;;;;1.50;0.90;;;23.20;92.20;;;;;;4980238;28;20465;-77
2021/09/04 09:21:30;;;;;;;1.50;0.90;;;23.40;92.20;;;;;;4972133;28;20484;-78
2021/09/04 09:24:09;;;;;;;1.50;0.90;;;23.50;92.00;;;;;;4985635;28;20854;-77
2021/09/04 09:26:47;;;;;;;1.50;0.90;;;23.60;90.40;;;;;;4969807;28;20595;-77
2021/09/04 09:29:18;;;;;;;1.50;0.90;;;23.70;90.80;;;;;;4988027;28;20480;-77
2021/09/04 09:31:45;;;;;;;1.53;0.90;;;23.70;90.40;;;;;;4968871;28;20806;-79
2021/09/04 09:34:13;;;;;;;1.53;0.90;;;23.80;90.70;;;;;;4984600;28;20495;-77
2021/09/04 09:36:54;;;;;;;1.53;0.90;;;23.70;90.80;;;;;;4975958;28;20497;-78
2021/09/04 09:39:26;;;;;;;1.50;0.90;;;23.80;91.10;;;;;;4986397;28;20465;-79
2021/09/04 09:41:55;;;;;;;1.50;0.90;;;23.90;90.70;;;;;;4977754;28;20551;-79
2021/09/04 09:44:23;;;;;;;1.53;1.00;;;23.90;90.00;;;;;;4985660;28;20467;-76
2021/09/04 09:46:53;;;;;;;1.53;0.90;;;24.00;89.80;;;;;;4975466;28;20488;-77
2021/09/04 09:49:26;;;;;;;1.50;0.90;;;24.00;89.70;;;;;;4985208;28;20493;-77
2021/09/04 09:51:58;;;;;;;1.57;0.90;;;24.10;88.30;;;;;;4975998;28;20477;-77
2021/09/04 09:54:26;;;;;;;1.50;0.90;;;24.20;89.90;;;;;;4986664;28;20481;-80
2021/09/04 09:56:56;;;;;;;1.50;0.90;;;24.20;89.60;;;;;;4976940;28;20539;-77
2021/09/04 09:59:26;;;;;;;1.50;0.87;;;24.30;90.20;;;;;;4987327;28;20465;-79
2021/09/04 10:01:54;;;;;;;1.57;0.90;;;24.30;89.50;;;;;;4968995;28;20486;-77
2021/09/04 10:04:25;;;;;;;1.50;0.90;;;24.30;89.10;;;;;;4978048;28;20552;-77
2021/09/04 10:06:52;;;;;;;1.50;0.87;;;24.40;89.30;;;;;;4967975;28;20493;-77
2021/09/04 10:09:22;;;;;;;1.50;0.90;;;24.40;89.30;;;;;;4985501;28;20461;-78
2021/09/04 10:11:49;;;;;;;1.50;0.80;;;24.40;88.70;;;;;;4977663;28;21524;-80
2021/09/04 10:14:18;;;;;;;1.50;0.90;;;24.40;89.40;;;;;;4988165;28;21693;-80
2021/09/04 10:16:46;;;;;;;1.50;0.90;;;24.50;88.70;;;;;;4970807;28;20493;-79
2021/09/04 10:19:16;;;;;;;1.50;0.87;;;24.50;88.90;;;;;;4986894;28;21172;-79
2021/09/04 10:21:45;;;;;;;1.50;0.90;;;24.60;88.00;;;;;;4976396;28;20488;-80
2021/09/04 10:24:12;;;;;;;1.50;0.80;;;24.70;88.00;;;;;;4981149;28;20484;-78
2021/09/04 10:26:40;;;;;;;1.53;0.90;;;24.80;87.90;;;;;;4970910;28;20497;-79
2021/09/04 10:29:13;;;;;;;1.50;0.90;;;24.80;88.70;;;;;;4985521;28;20567;-79
2021/09/04 10:31:58;;;;;;;1.57;0.90;;;25.00;87.60;;;;;;4976631;28;20492;-78
2021/09/04 10:34:31;;;;;;;1.50;0.90;;;25.00;87.20;;;;;;4973879;28;20571;-79
2021/09/04 10:36:59;;;;;;;1.50;0.90;;;25.00;87.40;;;;;;4980886;28;20651;-80
2021/09/04 10:39:49;;;;;;;1.50;0.90;;;25.00;86.70;;;;;;4987155;28;20668;-80
2021/09/04 10:42:18;;;;;;;1.50;0.87;;;25.10;86.30;;;;;;4972893;28;20485;-79
2021/09/04 10:44:45;;;;;;;1.60;1.20;;;25.10;86.80;;;;;;4990280;28;21072;-78
2021/09/04 10:47:14;;;;;;;1.50;0.83;;;25.20;86.70;;;;;;4973037;28;21121;-79
2021/09/04 10:49:43;;;;;;;1.50;0.80;;;25.30;86.30;;;;;;4986720;28;20468;-79
2021/09/04 10:52:10;;;;;;;1.50;0.90;;;25.30;86.60;;;;;;4971553;28;21082;-77
2021/09/04 10:54:56;;;;;;;1.50;0.90;;;25.40;86.30;;;;;;4985028;28;20467;-80
2021/09/04 10:57:23;;;;;;;1.50;0.90;;;25.40;86.00;;;;;;4962013;28;21017;-80
2021/09/04 11:00:05;;;;;;;1.50;0.80;;;25.50;86.30;;;;;;4986067;28;20555;-80
2021/09/04 11:02:44;;;;;;;1.50;0.90;;;25.60;86.10;;;;;;4969750;28;20575;-80
2021/09/04 11:05:48;;;;;;;1.50;0.90;;;25.70;84.80;;;;;;4985881;28;20484;-80
2021/09/04 11:08:28;;;;;;;1.50;0.90;;;25.80;86.20;;;;;;4957534;28;20492;-78
2021/09/04 11:11:19;;;;;;;1.50;0.83;;;25.90;86.30;;;;;;4983364;28;20490;-80
2021/09/04 11:13:47;;;;;;;1.50;0.90;;;26.00;85.60;;;;;;4980918;28;20492;-80
2021/09/04 11:16:42;;;;;;;1.50;0.90;;;26.10;85.30;;;;;;4973304;28;20491;-81
2021/09/04 11:19:14;;;;;;;1.50;0.80;;;26.20;85.00;;;;;;4984698;28;21122;-80
2021/09/04 11:21:50;;;;;;;1.50;0.80;;;26.20;85.10;;;;;;4971528;28;20517;-77
2021/09/04 11:24:23;;;;;;;1.60;1.10;;;26.30;84.70;;;;;;4990639;28;20469;-78
2021/09/04 11:26:52;;;;;;;1.60;1.10;;;26.40;84.10;;;;;;4961787;28;20489;-78
2021/09/04 11:29:19;;;;;;;1.50;0.80;;;26.40;84.50;;;;;;4982082;28;20513;-78
2021/09/04 11:32:00;;;;;;;1.50;0.90;;;26.40;83.70;;;;;;4974450;28;20554;-78
2021/09/04 11:34:50;;;;;;;1.50;0.80;;;26.50;83.60;;;;;;4973379;28;20452;-78
2021/09/04 11:37:23;;;;;;;1.50;0.90;;;26.50;83.50;;;;;;4974153;28;21023;-78
2021/09/04 11:39:55;;;;;;;1.50;0.87;;;26.60;83.30;;;;;;4984557;28;20500;-78
2021/09/04 11:42:23;;;;;;;1.50;0.80;;;26.70;83.70;;;;;;4969137;28;20485;-78
2021/09/04 11:44:52;;;;;;;1.50;0.90;;;26.70;82.60;;;;;;4989084;28;20475;-77
2021/09/04 11:47:19;;;;;;;1.50;0.80;;;26.70;83.40;;;;;;4977952;28;20508;-79
2021/09/04 11:49:49;;;;;;;1.50;0.80;;;26.70;83.30;;;;;;4988828;28;20465;-78
2021/09/04 11:52:17;;;;;;;1.50;0.80;;;26.70;83.20;;;;;;4977101;28;20488;-79
2021/09/04 11:54:44;;;;;;;1.50;0.80;;;26.80;83.50;;;;;;4988702;28;20475;-78
2021/09/04 11:57:24;;;;;;;1.50;0.80;;;26.90;83.30;;;;;;4984305;28;20488;-78
2021/09/04 12:00:01;;;;;;;1.50;0.90;;;27.00;84.10;;;;;;4982623;28;20460;-78
2021/09/04 12:02:28;;;;;;;1.60;1.23;;;26.90;83.60;;;;;;4976025;28;20513;-78
2021/09/04 12:04:57;;;;;;;1.50;0.90;;;27.00;82.70;;;;;;4990993;28;20551;-78
2021/09/04 12:07:28;;;;;;;1.50;0.80;;;27.00;82.60;;;;;;4970562;28;20484;-79
2021/09/04 12:09:56;;;;;;;1.50;0.90;;;27.10;81.80;;;;;;4987763;28;20463;-78
2021/09/04 12:12:25;;;;;;;1.50;0.80;;;27.20;81.90;;;;;;4984476;28;20484;-78
2021/09/04 12:14:53;;;;;;;1.50;0.90;;;27.20;82.50;;;;;;4982368;28;20460;-79
2021/09/04 12:17:20;;;;;;;1.50;0.80;;;27.20;81.10;;;;;;4967898;28;20495;-79
2021/09/04 12:19:46;;;;;;;1.50;0.90;;;27.20;82.00;;;;;;4987733;28;20464;-77
2021/09/04 12:22:15;;;;;;;1.50;0.90;;;27.20;82.20;;;;;;4972013;28;20476;-78
2021/09/04 12:24:41;;;;;;;1.50;0.80;;;27.20;81.80;;;;;;4982861;28;20482;-78
2021/09/04 12:27:08;;;;;;;1.50;0.80;;;27.30;81.60;;;;;;4976044;28;20488;-78
2021/09/04 12:29:35;;;;;;;1.50;0.80;;;27.30;82.10;;;;;;4988186;28;20880;-78
2021/09/04 12:32:07;;;;;;;1.50;0.90;;;27.30;82.30;;;;;;4967172;28;21023;-78
2021/09/04 12:34:34;;;;;;;1.50;0.80;;;27.30;81.80;;;;;;4983521;28;21124;-78
2021/09/04 12:37:01;;;;;;;1.50;0.80;;;27.30;81.90;;;;;;4977797;28;21231;-77
2021/09/04 12:39:30;;;;;;;1.50;0.80;;;27.20;82.20;;;;;;4986127;28;20464;-78
2021/09/04 12:42:01;;;;;;;1.70;1.27;;;27.20;82.50;;;;;;4977255;28;20491;-79
2021/09/04 12:44:39;;;;;;;1.50;0.90;;;27.30;82.90;;;;;;4990005;28;20477;-79
2021/09/04 12:47:07;;;;;;;1.50;1.10;;;27.30;81.90;;;;;;4967340;28;20496;-80
2021/09/04 12:49:35;;;;;;;1.50;0.80;;;27.20;81.60;;;;;;4987357;28;21342;-80
2021/09/04 12:52:12;;;;;;;1.47;0.90;;;27.30;81.40;;;;;;4968909;28;20492;-79
2021/09/04 12:54:42;;;;;;;1.50;0.80;;;27.20;83.10;;;;;;4987077;28;20464;-80